createdAt,value
2018-03-20T00:00:45.558Z,9.37
2018-03-20T00:10:47.122Z,9.73
2018-03-20T00:20:48.694Z,10.77
2018-03-20T00:30:50.982Z,10.03
2018-03-20T00:40:52.585Z,11.83
2018-03-20T00:50:54.085Z,10.03
2018-03-20T01:00:55.590Z,11.00
2018-03-20T01:10:57.120Z,9.73
2018-03-20T01:20:58.693Z,8.00
2018-03-20T01:31:00.221Z,8.30
2018-03-20T01:41:01.758Z,8.77
2018-03-20T01:51:03.263Z,8.37
2018-03-20T02:01:04.770Z,8.13
2018-03-20T02:11:06.289Z,8.67
2018-03-20T02:21:07.837Z,8.30
2018-03-20T02:31:09.417Z,7.40
2018-03-20T02:41:10.946Z,8.27
2018-03-20T02:51:12.471Z,8.93
2018-03-20T03:01:14.045Z,8.87
2018-03-20T03:11:15.589Z,9.30
2018-03-20T03:21:17.132Z,8.00
2018-03-20T03:31:18.669Z,8.93
2018-03-20T03:41:20.252Z,8.07
2018-03-20T03:51:21.786Z,7.10
2018-03-20T04:01:23.301Z,7.30
2018-03-20T04:11:25.756Z,8.97
2018-03-20T04:21:27.472Z,9.03
2018-03-20T04:31:28.941Z,8.30
2018-03-20T04:41:30.484Z,9.17
2018-03-20T04:51:32.033Z,9.00
2018-03-20T05:01:33.563Z,10.10
2018-03-20T05:11:35.586Z,16.27
2018-03-20T05:42:29.056Z,11.07
2018-03-20T05:52:30.586Z,8.83
2018-03-20T06:02:32.180Z,9.17
2018-03-20T06:12:34.488Z,10.27
2018-03-20T06:22:36.778Z,10.63
2018-03-20T06:32:38.352Z,11.10
2018-03-20T06:42:39.961Z,9.90
2018-03-20T06:52:42.497Z,10.37
2018-03-20T07:02:44.082Z,8.43
2018-03-20T07:12:45.613Z,9.20
2018-03-20T07:22:47.187Z,10.43
2018-03-20T07:32:48.713Z,9.00
2018-03-20T07:42:50.237Z,8.20
2018-03-20T07:52:52.507Z,9.63
2018-03-20T08:02:54.039Z,9.10
2018-03-20T08:12:55.542Z,9.07
2018-03-20T08:22:57.063Z,9.07
2018-03-20T08:32:58.773Z,10.53
2018-03-20T08:43:00.310Z,9.63
2018-03-20T08:53:01.837Z,8.83
2018-03-20T09:03:04.186Z,8.30
2018-03-20T09:13:05.674Z,15.17
2018-03-20T09:23:07.246Z,9.60
2018-03-20T09:33:08.759Z,9.33
2018-03-20T09:43:11.024Z,8.03
2018-03-20T09:53:12.627Z,8.47
2018-03-20T10:03:14.160Z,8.03
2018-03-20T10:13:15.674Z,9.40
2018-03-20T10:23:18.076Z,10.47
2018-03-20T10:33:19.603Z,10.80
2018-03-20T10:43:21.978Z,12.03
2018-03-20T10:53:30.565Z,16.13
2018-03-20T11:03:32.064Z,15.40
2018-03-20T11:13:33.593Z,17.00
2018-03-20T11:23:35.889Z,16.57
2018-03-20T11:33:37.456Z,18.50
2018-03-20T11:43:39.053Z,20.53
2018-03-20T11:53:40.582Z,19.60
2018-03-20T12:03:42.854Z,19.90
2018-03-20T12:13:44.390Z,22.63
2018-03-20T12:23:45.955Z,23.67
2018-03-20T12:33:47.565Z,22.47
2018-03-20T12:43:49.089Z,20.00
2018-03-20T12:53:50.680Z,19.10
2018-03-20T13:03:52.271Z,18.47
2018-03-20T13:13:53.818Z,20.50
2018-03-20T13:23:56.143Z,20.00
2018-03-20T13:33:59.442Z,20.00
2018-03-20T13:44:00.978Z,17.33
2018-03-20T13:54:02.592Z,13.83
2018-03-20T14:04:04.201Z,12.07
2018-03-20T14:14:05.805Z,11.10
2018-03-20T14:24:07.391Z,9.00
2018-03-20T14:34:09.773Z,11.17
2018-03-20T14:44:11.393Z,9.33
2018-03-20T14:54:12.914Z,10.77
2018-03-20T15:04:15.324Z,8.93
2018-03-20T15:14:18.269Z,8.67
2018-03-20T15:24:19.851Z,9.23
2018-03-20T15:34:21.647Z,9.10
2018-03-20T15:44:23.169Z,17.63
2018-03-20T15:54:26.537Z,9.10
2018-03-20T16:04:29.254Z,10.73
2018-03-20T16:14:30.854Z,9.37
2018-03-20T16:24:32.453Z,8.30
2018-03-20T16:29:33.991Z,9.60
2018-03-20T16:34:36.519Z,9.67
2018-03-20T16:39:38.083Z,9.20
2018-03-20T16:44:39.616Z,9.30
2018-03-20T16:49:41.118Z,9.50
2018-03-20T16:54:42.609Z,8.97
2018-03-20T16:59:44.162Z,9.93
2018-03-20T17:04:45.629Z,10.57
2018-03-20T17:09:47.114Z,10.43
2018-03-20T17:14:48.632Z,10.10
2018-03-20T17:19:50.193Z,9.40
2018-03-20T17:24:51.754Z,10.90
2018-03-20T17:29:53.312Z,13.50
2018-03-20T17:34:55.518Z,11.97
2018-03-20T17:39:57.046Z,12.30
2018-03-20T17:44:58.598Z,12.20
2018-03-20T17:50:00.174Z,10.93
2018-03-20T17:55:02.298Z,11.70
2018-03-20T18:00:04.202Z,11.10
2018-03-20T18:05:05.745Z,11.93
2018-03-20T18:10:07.284Z,11.50
2018-03-20T18:15:09.531Z,15.93
2018-03-20T18:20:11.135Z,11.90
2018-03-20T18:25:12.715Z,11.70
2018-03-20T18:30:15.036Z,14.60
2018-03-20T18:35:16.578Z,13.57
2018-03-20T18:40:18.845Z,15.20
2018-03-20T18:45:21.278Z,14.10
2018-03-20T18:50:22.831Z,13.80
2018-03-20T18:55:24.443Z,13.33
2018-03-20T19:00:26.025Z,14.17
2018-03-20T19:05:27.593Z,17.67
2018-03-20T19:10:29.173Z,15.50
2018-03-20T19:15:32.462Z,14.37
2018-03-20T19:20:34.192Z,14.90
2018-03-20T19:25:35.764Z,17.60
2018-03-20T19:30:37.937Z,17.50
2018-03-20T19:35:39.523Z,16.80
2018-03-20T19:40:41.190Z,16.40
2018-03-20T19:45:42.718Z,17.97
2018-03-20T19:50:45.114Z,16.27
2018-03-20T19:55:46.816Z,22.87
2018-03-20T20:00:48.432Z,17.03
2018-03-20T20:05:49.998Z,19.47
2018-03-20T20:10:51.957Z,20.83
2018-03-20T20:15:53.496Z,20.60
2018-03-20T20:20:55.139Z,22.07
2018-03-20T20:25:57.581Z,21.63
2018-03-20T20:30:59.237Z,23.13
2018-03-20T20:36:00.774Z,23.07
2018-03-20T20:41:02.296Z,20.00
2018-03-20T20:46:03.997Z,19.20
2018-03-20T20:51:06.312Z,33.37
2018-03-20T20:56:07.946Z,21.30
2018-03-20T21:01:09.543Z,21.80
2018-03-20T21:06:11.121Z,23.30
2018-03-20T21:11:12.827Z,21.27
2018-03-20T21:16:14.397Z,23.17
2018-03-20T21:21:16.041Z,23.10
2018-03-20T21:26:17.627Z,22.03
2018-03-20T21:31:19.164Z,20.57
2018-03-20T21:36:20.786Z,23.93
2018-03-20T21:41:22.615Z,20.10
2018-03-20T21:46:24.332Z,20.03
2018-03-20T21:51:25.900Z,33.00
2018-03-20T21:56:27.429Z,18.27
2018-03-20T22:01:29.036Z,18.33
2018-03-20T22:06:30.755Z,18.80
2018-03-20T22:11:32.432Z,19.20
2018-03-20T22:16:34.002Z,18.00
2018-03-20T22:21:35.609Z,19.07
2018-03-20T22:26:37.898Z,16.90
2018-03-20T22:31:39.462Z,16.00
2018-03-20T22:36:41.088Z,14.90
2018-03-20T22:41:43.422Z,9.73
2018-03-20T22:46:45.592Z,10.60
2018-03-20T22:51:47.163Z,11.13
2018-03-20T22:56:48.659Z,8.33
2018-03-20T23:01:50.218Z,7.73
2018-03-20T23:06:51.798Z,10.80
2018-03-20T23:11:53.356Z,11.10
2018-03-20T23:16:54.857Z,13.20
2018-03-20T23:21:56.471Z,12.93
2018-03-20T23:26:57.997Z,12.23
2018-03-20T23:32:00.282Z,12.90
2018-03-20T23:37:02.582Z,13.70
2018-03-20T23:42:04.094Z,12.83
2018-03-20T23:47:12.564Z,15.27
2018-03-20T23:52:14.858Z,13.57
2018-03-20T23:57:16.412Z,15.23
